Kezdőlap
METAR-TAF:

METAR-TAF

Repülőterek :

Harrisburg, Pennsylvania, Amerikai Egyesült Államok

földrajzi szélesség: 40-13-02N, földrajzi hosszúság: 076-51-05W, magasság: 106 m

Jelenlegi meteorológiai megfigyelések

A jelentés 41 perccel ezelõtt készült, 16:56 UTC
Nyugat-délnyugati szél 7 kt
Hőmérséklet 12°C
Páratartalom 17%
Légköri nyomás 1023 hPa
Látótávolság: 16.1 km
Derült ég

METAR: KCXY 231656Z 24007KT 10SM CLR 12/M12 A3020 RMK AO2 SLP228 T01171117

Idő: 12:37 (17:37 UTC)


TAF: hiányzik

Meteorológiai megfigyelések és előrejelzések több, mint 4000 repülőtéren (METAR és TAF jelentéseket).

A térképen piros és sárga pontok jelzik az elérhető meteorológiai állomásokat.

Mozgassa az egeret a pont fölött, hogy megjelenjen az állomás neve.

Azután kattintson az időjárási megfigyelések és előrejelzések megtekintéséhez.

A térkép megváltoztatása: kattintson a fekete keresztel jelölt zöld gombra ráközelítéshez, a vonallal jelölt zöld gombra távolításhoz, vagy a zöld nyilakra a szomszédos térképek eléréséhez.


METAR-TAF: